Time;durP1;ratioP1;P1;durP2;ratioP2;P2;SDS_P1;SDS_P2;PMS_P1;PMS_P2;Temp;Humidity;BMP_temperature;BMP_pressure;BME280_temperature;BME280_humidity;BME280_pressure;Samples;Min_cycle;Max_cycle;Signal;HPM_P1;HPM_P2
2022/03/10 00:02:06;;;;;;;17.73;9.43;;;2.40;82.40;;;;;;4997686;28;20116;-86
2022/03/10 00:04:34;;;;;;;19.00;11.07;;;2.40;81.50;;;;;;5004246;28;20049;-86
2022/03/10 00:07:02;;;;;;;16.67;10.25;;;2.40;80.50;;;;;;5015824;28;20041;-86
2022/03/10 00:09:28;;;;;;;18.80;9.60;;;2.50;80.00;;;;;;5014902;28;20609;-86
2022/03/10 00:11:54;;;;;;;18.48;10.13;;;2.50;79.70;;;;;;4982637;28;20066;-86
2022/03/10 00:14:19;;;;;;;18.73;10.68;;;2.40;79.60;;;;;;5022448;28;20391;-86
2022/03/10 00:16:45;;;;;;;18.88;9.48;;;2.40;80.20;;;;;;5010619;28;20124;-86
2022/03/10 00:19:12;;;;;;;19.48;11.13;;;2.40;80.30;;;;;;5010489;28;20041;-86
2022/03/10 00:21:38;;;;;;;17.65;11.02;;;2.40;80.10;;;;;;5006482;28;20059;-86
2022/03/10 00:24:04;;;;;;;18.25;10.38;;;2.40;80.20;;;;;;5003575;28;20091;-86
2022/03/10 00:26:30;;;;;;;19.85;11.00;;;2.40;80.10;;;;;;4997219;28;20053;-86
2022/03/10 00:28:55;;;;;;;20.58;11.05;;;2.40;80.00;;;;;;4986427;28;20524;-86
2022/03/10 00:31:21;;;;;;;20.20;11.35;;;2.40;79.80;;;;;;5004720;28;20137;-86
2022/03/10 00:33:47;;;;;;;16.63;10.30;;;2.40;79.90;;;;;;5020559;28;20081;-87
2022/03/10 00:36:12;;;;;;;20.38;10.25;;;2.40;79.70;;;;;;5006914;28;20060;-86
2022/03/10 00:38:38;;;;;;;18.65;10.77;;;2.30;80.00;;;;;;5002330;28;20115;-86
2022/03/10 00:41:04;;;;;;;18.70;10.77;;;2.40;80.70;;;;;;5006537;28;20048;-86
2022/03/10 00:43:29;;;;;;;19.23;10.77;;;2.30;81.10;;;;;;4985931;28;20493;-86
2022/03/10 00:45:55;;;;;;;20.65;10.77;;;2.30;81.10;;;;;;5022557;28;20837;-86
2022/03/10 00:48:20;;;;;;;18.90;11.35;;;2.20;81.40;;;;;;4991615;28;20539;-86
2022/03/10 00:50:46;;;;;;;19.05;11.27;;;2.20;81.50;;;;;;5003194;28;20033;-86
2022/03/10 00:53:11;;;;;;;18.80;10.35;;;2.20;82.20;;;;;;5024041;28;20080;-86
2022/03/10 00:55:37;;;;;;;21.33;11.65;;;2.10;82.40;;;;;;4994971;28;20200;-86
2022/03/10 00:58:03;;;;;;;21.17;11.02;;;2.10;82.90;;;;;;4994125;28;20038;-86
2022/03/10 01:00:29;;;;;;;19.95;11.10;;;2.10;84.40;;;;;;5000797;28;20092;-86
2022/03/10 01:02:58;;;;;;;19.35;11.25;;;2.00;90.60;;;;;;5004998;28;20045;-86
2022/03/10 01:05:24;;;;;;;18.92;10.43;;;1.90;89.10;;;;;;5006551;28;20084;-86
2022/03/10 01:07:49;;;;;;;18.73;11.52;;;1.80;89.90;;;;;;5004065;28;20433;-85
2022/03/10 01:10:17;;;;;;;21.45;11.80;;;1.80;89.00;;;;;;5025612;28;20038;-86
2022/03/10 01:12:45;;;;;;;20.13;12.13;;;1.80;89.00;;;;;;5002167;28;20057;-86
2022/03/10 01:15:12;;;;;;;22.10;11.63;;;1.70;90.20;;;;;;5007738;28;20278;-86
2022/03/10 01:17:38;;;;;;;18.65;10.65;;;1.60;90.10;;;;;;5005179;28;20072;-86
2022/03/10 01:20:05;;;;;;;22.48;12.15;;;1.60;90.60;;;;;;5004271;28;20034;-86
2022/03/10 01:22:30;;;;;;;22.73;12.27;;;1.50;91.80;;;;;;4976764;28;20430;-87
2022/03/10 01:24:56;;;;;;;20.30;11.85;;;1.60;91.40;;;;;;4982601;28;20107;-86
2022/03/10 01:27:22;;;;;;;21.02;10.18;;;1.50;91.60;;;;;;4997310;28;20046;-86
2022/03/10 01:29:47;;;;;;;20.35;11.57;;;1.40;91.60;;;;;;4999095;28;20046;-86
2022/03/10 01:32:13;;;;;;;21.05;11.43;;;1.40;91.50;;;;;;5019517;28;20305;-86
2022/03/10 01:34:39;;;;;;;20.00;11.68;;;1.40;92.30;;;;;;5021902;28;20037;-86
2022/03/10 01:37:04;;;;;;;19.17;10.60;;;1.30;92.20;;;;;;5022121;28;20050;-86
2022/03/10 01:39:32;;;;;;;19.63;11.43;;;1.30;92.20;;;;;;5000350;28;20073;-86
2022/03/10 01:41:59;;;;;;;19.02;11.23;;;1.30;92.20;;;;;;5012779;28;20041;-86
2022/03/10 01:44:24;;;;;;;20.90;12.00;;;1.30;92.40;;;;;;5025559;28;20034;-86
2022/03/10 01:46:50;;;;;;;20.25;11.65;;;1.30;92.40;;;;;;5011306;28;20056;-86
2022/03/10 01:49:16;;;;;;;20.15;11.30;;;1.30;92.90;;;;;;5028745;28;20042;-86
2022/03/10 01:51:42;;;;;;;20.50;11.52;;;1.30;93.10;;;;;;4980855;28;20050;-86
2022/03/10 01:54:07;;;;;;;23.67;12.57;;;1.30;93.20;;;;;;5021767;28;20375;-86
2022/03/10 01:56:33;;;;;;;20.02;10.88;;;1.30;92.80;;;;;;5029417;28;20114;-87
2022/03/10 01:59:01;;;;;;;19.63;11.07;;;1.30;92.30;;;;;;5033651;28;20045;-86
2022/03/10 02:01:27;;;;;;;19.33;11.23;;;1.30;92.00;;;;;;5011630;28;20278;-86
2022/03/10 02:03:53;;;;;;;20.90;12.07;;;1.40;91.70;;;;;;5029410;28;20452;-86
2022/03/10 02:06:18;;;;;;;17.98;11.05;;;1.40;91.40;;;;;;5019169;28;20042;-86
2022/03/10 02:11:29;;;;;;;20.20;11.30;;;1.40;90.90;;;;;;5020587;28;20049;-86
2022/03/10 02:13:55;;;;;;;19.05;10.30;;;1.50;90.90;;;;;;4995826;28;20057;-86
2022/03/10 02:19:05;;;;;;;21.08;11.60;;;1.40;90.50;;;;;;5024823;28;20402;-87
2022/03/10 02:21:32;;;;;;;18.30;10.60;;;1.50;90.50;;;;;;5004452;28;20038;-86
2022/03/10 02:23:57;;;;;;;19.75;11.73;;;1.50;90.70;;;;;;5001170;28;20056;-86
2022/03/10 02:26:23;;;;;;;20.55;11.05;;;1.40;90.50;;;;;;4998928;28;20402;-86
2022/03/10 02:28:52;;;;;;;19.23;10.65;;;1.40;90.40;;;;;;4980158;28;20088;-87
2022/03/10 02:31:17;;;;;;;17.70;11.13;;;1.40;90.70;;;;;;4980040;28;20132;-87
2022/03/10 02:33:43;;;;;;;19.05;11.27;;;1.40;90.50;;;;;;5002814;28;20390;-87
2022/03/10 02:36:08;;;;;;;22.85;12.07;;;1.40;91.00;;;;;;4981754;28;20045;-87
2022/03/10 02:38:34;;;;;;;20.48;12.07;;;1.30;91.20;;;;;;5006667;28;20564;-87
2022/03/10 02:41:00;;;;;;;20.50;12.02;;;1.30;91.60;;;;;;5006284;28;20037;-87
2022/03/10 02:43:25;;;;;;;20.90;11.82;;;1.20;91.80;;;;;;5008271;28;20048;-87
2022/03/10 02:45:51;;;;;;;20.50;12.30;;;1.20;92.30;;;;;;4989312;28;20091;-87
2022/03/10 02:48:18;;;;;;;20.77;11.65;;;1.20;92.50;;;;;;5018259;28;20044;-87
2022/03/10 02:50:45;;;;;;;21.27;12.18;;;1.20;92.80;;;;;;4997186;28;20037;-87
2022/03/10 02:53:11;;;;;;;18.85;11.07;;;1.10;93.20;;;;;;5015185;28;20115;-86
2022/03/10 02:55:38;;;;;;;19.60;11.85;;;1.10;93.30;;;;;;5015239;28;20053;-86
2022/03/10 02:58:04;;;;;;;23.17;11.60;;;1.10;93.30;;;;;;5009327;28;20090;-87
2022/03/10 03:00:29;;;;;;;18.73;11.57;;;1.20;93.30;;;;;;5008595;28;20057;-86
2022/03/10 03:02:55;;;;;;;22.08;11.95;;;1.20;93.30;;;;;;5024084;28;20073;-87
2022/03/10 03:05:21;;;;;;;20.52;11.90;;;1.20;92.70;;;;;;5027501;28;20116;-87
2022/03/10 03:07:48;;;;;;;19.48;11.40;;;1.30;92.60;;;;;;5025129;28;20087;-88
2022/03/10 03:10:14;;;;;;;21.98;12.30;;;1.30;92.20;;;;;;5029046;28;20449;-87
2022/03/10 03:12:48;;;;;;;20.65;11.60;;;1.30;91.60;;;;;;5020904;28;20046;-86
2022/03/10 03:15:14;;;;;;;21.20;12.70;;;1.40;91.90;;;;;;5010438;28;20474;-86
2022/03/10 03:17:40;;;;;;;19.52;11.55;;;1.40;92.10;;;;;;5000130;28;20054;-87
2022/03/10 03:20:06;;;;;;;20.38;11.30;;;1.40;91.70;;;;;;5003526;28;20049;-87
2022/03/10 03:22:32;;;;;;;21.70;11.73;;;1.40;91.60;;;;;;5007304;28;20459;-87
2022/03/10 03:24:57;;;;;;;20.17;11.70;;;1.40;91.30;;;;;;4996697;28;20053;-87
2022/03/10 03:27:23;;;;;;;19.27;11.05;;;1.40;91.20;;;;;;5003784;28;20095;-86
2022/03/10 03:29:49;;;;;;;21.17;11.77;;;1.40;90.90;;;;;;5019952;28;20104;-86
2022/03/10 03:32:14;;;;;;;19.55;11.18;;;1.40;90.70;;;;;;5012368;28;20126;-87
2022/03/10 03:34:40;;;;;;;19.17;11.25;;;1.50;90.50;;;;;;5010005;28;20393;-87
2022/03/10 03:37:05;;;;;;;19.80;11.45;;;1.50;90.50;;;;;;5017642;28;20034;-86
2022/03/10 03:39:31;;;;;;;21.17;11.65;;;1.50;90.90;;;;;;5016842;28;20486;-86
2022/03/10 03:41:57;;;;;;;19.80;11.45;;;1.50;90.50;;;;;;4983873;28;20519;-87
2022/03/10 03:44:23;;;;;;;20.83;11.45;;;1.40;90.50;;;;;;5011028;28;20056;-87
2022/03/10 03:46:48;;;;;;;19.25;10.45;;;1.40;90.60;;;;;;4987240;28;20038;-87
2022/03/10 03:49:14;;;;;;;22.88;10.35;;;1.40;90.70;;;;;;5002234;28;20121;-86
2022/03/10 03:51:40;;;;;;;20.80;11.32;;;1.40;90.70;;;;;;5008522;28;20045;-86
2022/03/10 03:54:07;;;;;;;21.23;11.18;;;1.40;90.60;;;;;;4987235;28;20085;-86
2022/03/10 03:56:34;;;;;;;18.92;10.10;;;1.40;90.30;;;;;;4996040;28;20042;-86
2022/03/10 03:58:59;;;;;;;18.98;9.70;;;1.40;90.10;;;;;;4987498;28;20076;-86
2022/03/10 04:01:25;;;;;;;19.35;9.95;;;1.40;90.00;;;;;;5009087;28;20140;-87
2022/03/10 04:03:50;;;;;;;19.15;10.20;;;1.40;89.40;;;;;;4982805;28;20038;-86
2022/03/10 04:06:16;;;;;;;17.35;10.00;;;1.40;89.30;;;;;;4990634;28;20087;-87
2022/03/10 04:08:42;;;;;;;18.95;10.52;;;1.40;88.80;;;;;;5027221;28;20041;-86
2022/03/10 04:11:08;;;;;;;18.73;10.82;;;1.40;88.50;;;;;;5008318;28;20037;-86
2022/03/10 04:13:33;;;;;;;18.08;10.80;;;1.40;88.20;;;;;;4993275;28;20038;-87
2022/03/10 04:15:59;;;;;;;18.73;10.45;;;1.40;87.80;;;;;;4999241;28;20046;-87
2022/03/10 04:18:24;;;;;;;17.88;10.45;;;1.40;87.50;;;;;;5006447;28;20095;-87
2022/03/10 04:20:50;;;;;;;20.02;10.52;;;1.40;87.40;;;;;;4996678;28;20076;-87
2022/03/10 04:23:16;;;;;;;18.20;10.07;;;1.40;87.60;;;;;;5027868;28;20037;-86
2022/03/10 04:25:42;;;;;;;20.50;10.52;;;1.40;87.70;;;;;;4996839;28;20037;-86
2022/03/10 04:28:08;;;;;;;21.10;10.20;;;1.30;88.10;;;;;;5004077;28;20068;-86
2022/03/10 04:30:34;;;;;;;19.80;10.40;;;1.30;87.80;;;;;;4983366;28;20038;-86
2022/03/10 04:33:01;;;;;;;17.20;9.40;;;1.30;87.80;;;;;;4994643;28;20041;-87
2022/03/10 04:35:27;;;;;;;16.42;9.55;;;1.20;87.80;;;;;;5028166;28;20041;-87
2022/03/10 04:37:53;;;;;;;18.25;9.75;;;1.20;87.90;;;;;;4981893;28;20037;-87
2022/03/10 04:40:20;;;;;;;18.85;10.02;;;1.20;88.20;;;;;;4996016;28;20045;-87
2022/03/10 04:42:47;;;;;;;18.27;10.30;;;1.20;89.30;;;;;;5022626;28;20089;-87
2022/03/10 04:45:13;;;;;;;17.95;10.43;;;1.10;89.60;;;;;;5010572;28;20049;-87
2022/03/10 04:47:40;;;;;;;17.60;10.25;;;1.20;89.90;;;;;;4982580;28;20061;-86
2022/03/10 04:50:06;;;;;;;17.55;9.55;;;1.20;89.40;;;;;;5001726;28;20462;-87
2022/03/10 04:52:32;;;;;;;15.70;9.93;;;1.10;89.30;;;;;;5016091;28;20074;-87
2022/03/10 04:54:59;;;;;;;18.98;11.23;;;1.10;89.60;;;;;;5024737;28;20077;-87
2022/03/10 04:57:24;;;;;;;20.10;10.20;;;1.10;89.60;;;;;;4987513;28;20490;-87
2022/03/10 04:59:50;;;;;;;19.35;9.57;;;1.10;89.50;;;;;;5004256;28;20064;-87
2022/03/10 05:02:16;;;;;;;20.90;10.23;;;1.10;89.90;;;;;;5013632;28;20478;-87
2022/03/10 05:04:41;;;;;;;19.70;10.23;;;1.00;90.00;;;;;;4997544;28;20053;-87
2022/03/10 05:07:07;;;;;;;18.55;10.15;;;1.00;90.20;;;;;;4992605;28;20518;-87
2022/03/10 05:09:32;;;;;;;20.13;10.88;;;1.00;90.40;;;;;;5005865;28;20041;-87
2022/03/10 05:11:58;;;;;;;17.10;10.45;;;1.00;90.50;;;;;;5003800;28;20076;-87
2022/03/10 05:14:24;;;;;;;19.42;10.55;;;1.00;90.80;;;;;;5011886;28;20041;-87
2022/03/10 05:16:50;;;;;;;16.55;10.40;;;0.90;90.90;;;;;;5025601;28;20046;-86
2022/03/10 05:19:16;;;;;;;18.42;9.68;;;1.00;91.00;;;;;;4993273;28;20038;-87
2022/03/10 05:21:42;;;;;;;18.42;10.05;;;0.90;91.00;;;;;;5019144;28;20084;-87
2022/03/10 05:24:08;;;;;;;17.17;10.52;;;0.90;91.20;;;;;;4977911;28;20100;-87
2022/03/10 05:26:33;;;;;;;18.40;10.02;;;0.90;91.30;;;;;;4987463;28;20061;-87
2022/03/10 05:28:59;;;;;;;18.88;10.23;;;0.90;91.30;;;;;;4996697;28;20038;-87
2022/03/10 05:31:24;;;;;;;19.55;10.00;;;0.80;91.70;;;;;;4989238;28;20085;-87
2022/03/10 05:33:50;;;;;;;18.52;10.88;;;0.90;91.90;;;;;;5006447;28;20045;-86
2022/03/10 05:36:15;;;;;;;18.50;10.45;;;0.80;91.90;;;;;;4981963;28;20048;-86
2022/03/10 05:38:41;;;;;;;18.52;10.43;;;0.80;91.90;;;;;;5008422;28;20041;-86
2022/03/10 05:41:07;;;;;;;19.20;10.57;;;0.80;91.90;;;;;;5003080;28;20122;-87
2022/03/10 05:43:32;;;;;;;18.70;10.65;;;0.80;92.00;;;;;;5001507;28;20091;-87
2022/03/10 05:45:58;;;;;;;21.30;11.30;;;0.80;91.90;;;;;;4988380;28;20041;-86
2022/03/10 05:48:24;;;;;;;19.50;11.43;;;0.80;92.20;;;;;;5026193;28;20128;-86
2022/03/10 05:50:49;;;;;;;19.60;11.02;;;0.70;92.50;;;;;;5001571;28;20490;-87
2022/03/10 05:53:15;;;;;;;21.17;11.75;;;0.70;92.70;;;;;;5001808;28;21360;-88
2022/03/10 05:55:40;;;;;;;18.67;10.32;;;0.70;93.10;;;;;;5008873;28;20056;-88
2022/03/10 05:58:06;;;;;;;18.90;11.00;;;0.60;93.60;;;;;;5006342;28;20047;-89
2022/03/10 06:00:32;;;;;;;21.88;11.60;;;0.60;94.50;;;;;;4992050;28;20058;-89
2022/03/10 06:02:58;;;;;;;20.90;12.02;;;0.60;95.00;;;;;;4995982;28;20041;-88
2022/03/10 06:05:23;;;;;;;21.20;11.35;;;0.50;94.90;;;;;;4991398;28;20566;-88
2022/03/10 06:07:49;;;;;;;20.13;11.02;;;0.50;95.00;;;;;;5007692;28;20068;-88
2022/03/10 06:10:15;;;;;;;19.08;10.80;;;0.60;94.90;;;;;;4996633;28;20049;-87
2022/03/10 06:12:40;;;;;;;20.27;11.07;;;0.50;95.10;;;;;;4994457;28;20052;-88
2022/03/10 06:15:08;;;;;;;20.77;11.48;;;0.60;95.30;;;;;;5006712;28;20088;-88
2022/03/10 06:17:34;;;;;;;17.92;10.75;;;0.50;95.60;;;;;;4986456;28;20042;-88
2022/03/10 06:20:00;;;;;;;22.05;11.00;;;0.50;95.80;;;;;;4998706;28;20041;-88
2022/03/10 06:22:30;;;;;;;22.48;12.02;;;0.50;96.20;;;;;;4995947;28;20449;-87
2022/03/10 06:24:57;;;;;;;20.23;10.77;;;0.60;96.60;;;;;;5010176;28;20502;-89
2022/03/10 06:27:23;;;;;;;21.05;11.00;;;0.60;96.30;;;;;;5002968;28;20673;-89
2022/03/10 06:29:50;;;;;;;23.20;12.00;;;0.60;95.90;;;;;;5009363;28;20038;-88
2022/03/10 06:32:17;;;;;;;20.88;11.50;;;0.70;95.90;;;;;;4978620;28;20046;-89
2022/03/10 06:34:43;;;;;;;20.75;10.25;;;0.80;96.30;;;;;;5002415;28;20037;-88
2022/03/10 06:37:09;;;;;;;19.60;10.98;;;0.80;95.40;;;;;;4987576;28;20176;-88
2022/03/10 06:39:35;;;;;;;22.27;12.07;;;0.80;95.20;;;;;;4986296;28;20136;-88
2022/03/10 06:42:02;;;;;;;20.33;10.85;;;0.90;95.60;;;;;;5030416;28;20120;-88
2022/03/10 06:44:29;;;;;;;20.13;11.30;;;1.00;95.40;;;;;;5002468;28;20395;-89
2022/03/10 06:46:55;;;;;;;21.02;11.15;;;1.00;95.20;;;;;;5014330;28;20041;-89
2022/03/10 06:49:21;;;;;;;19.20;10.48;;;1.10;95.00;;;;;;4990911;28;20051;-88
2022/03/10 06:51:48;;;;;;;21.35;11.10;;;1.10;94.90;;;;;;5027523;28;20060;-87
2022/03/10 06:54:14;;;;;;;20.48;12.13;;;1.20;94.90;;;;;;5035127;28;20437;-87
2022/03/10 06:56:40;;;;;;;20.67;11.90;;;1.30;94.90;;;;;;5031742;28;20095;-88
2022/03/10 06:59:06;;;;;;;21.00;11.63;;;1.40;94.90;;;;;;4994121;28;20037;-87
2022/03/10 07:01:32;;;;;;;22.63;11.57;;;1.30;95.20;;;;;;4992061;28;20053;-88
2022/03/10 07:03:59;;;;;;;21.98;11.77;;;1.50;95.20;;;;;;4990870;28;20087;-88
2022/03/10 07:06:25;;;;;;;22.20;12.10;;;1.50;95.30;;;;;;5002323;28;20117;-87
2022/03/10 07:08:51;;;;;;;19.50;10.55;;;1.60;95.30;;;;;;4992581;28;20041;-87
2022/03/10 07:11:17;;;;;;;18.77;11.10;;;1.70;95.80;;;;;;5006424;28;20080;-87
2022/03/10 07:13:44;;;;;;;21.00;12.30;;;1.80;95.70;;;;;;5024177;28;20037;-86
2022/03/10 07:16:09;;;;;;;20.38;11.68;;;1.80;95.40;;;;;;5005125;28;20053;-87
2022/03/10 07:18:35;;;;;;;20.02;11.20;;;1.90;95.00;;;;;;4993560;28;20293;-86
2022/03/10 07:21:02;;;;;;;20.98;11.60;;;2.00;95.00;;;;;;4978730;28;20163;-86
2022/03/10 07:23:28;;;;;;;19.75;11.82;;;2.10;94.30;;;;;;4998309;28;20053;-86
2022/03/10 07:25:54;;;;;;;20.17;12.57;;;2.20;94.60;;;;;;5001935;28;20048;-85
2022/03/10 07:28:20;;;;;;;18.45;11.38;;;2.30;94.00;;;;;;5016196;28;20061;-86
2022/03/10 07:30:45;;;;;;;21.42;12.38;;;2.40;94.30;;;;;;5016815;28;20046;-89
2022/03/10 07:33:11;;;;;;;20.35;12.00;;;2.50;93.70;;;;;;5000259;28;20045;-84
2022/03/10 07:35:37;;;;;;;20.73;12.65;;;2.50;93.40;;;;;;5007214;28;20045;-86
2022/03/10 07:38:02;;;;;;;22.58;12.40;;;2.60;93.50;;;;;;5022369;28;20096;-85
2022/03/10 07:40:28;;;;;;;20.48;12.75;;;2.70;93.40;;;;;;5010078;28;20132;-86
2022/03/10 07:42:54;;;;;;;18.17;10.82;;;2.80;93.40;;;;;;4986588;28;20045;-89
2022/03/10 07:45:19;;;;;;;20.50;11.90;;;2.90;93.20;;;;;;5004764;28;20076;-88
2022/03/10 07:47:45;;;;;;;20.13;12.27;;;3.00;93.00;;;;;;5008193;28;20406;-88
2022/03/10 07:50:10;;;;;;;20.40;12.57;;;3.10;92.90;;;;;;4998807;28;20037;-88
2022/03/10 07:52:36;;;;;;;19.85;12.25;;;3.20;92.70;;;;;;5009884;28;20043;-88
2022/03/10 07:55:03;;;;;;;22.05;12.20;;;3.30;92.60;;;;;;5029064;28;20433;-88
2022/03/10 07:57:29;;;;;;;20.55;11.52;;;3.30;92.60;;;;;;5011384;28;20055;-89
2022/03/10 07:59:55;;;;;;;18.30;11.45;;;3.40;92.40;;;;;;5016515;28;20351;-88
2022/03/10 08:02:21;;;;;;;21.98;12.45;;;3.60;92.30;;;;;;5028389;28;20502;-88
2022/03/10 08:04:47;;;;;;;20.58;12.55;;;3.70;91.70;;;;;;5020799;28;20094;-87
2022/03/10 08:07:13;;;;;;;21.05;12.07;;;3.80;91.70;;;;;;5003217;28;20073;-87
2022/03/10 08:09:38;;;;;;;19.70;11.18;;;3.90;91.10;;;;;;4994470;28;20073;-87
2022/03/10 08:12:04;;;;;;;21.38;12.38;;;4.00;90.90;;;;;;5026022;28;20053;-88
2022/03/10 08:14:30;;;;;;;18.67;11.45;;;4.10;90.60;;;;;;4989230;28;20044;-88
2022/03/10 08:16:55;;;;;;;21.60;13.82;;;4.20;90.20;;;;;;5002702;28;20468;-87
2022/03/10 08:19:21;;;;;;;19.80;12.10;;;4.40;89.10;;;;;;5006735;28;20049;-88
2022/03/10 08:21:48;;;;;;;20.98;12.80;;;4.40;89.10;;;;;;5000911;28;20512;-88
2022/03/10 08:24:14;;;;;;;20.80;12.43;;;4.60;88.60;;;;;;4995551;28;20046;-87
2022/03/10 08:26:40;;;;;;;20.55;12.80;;;4.70;88.30;;;;;;4980591;28;20182;-87
2022/03/10 08:29:06;;;;;;;19.42;12.00;;;4.80;87.40;;;;;;5004752;28;20051;-87
2022/03/10 08:31:31;;;;;;;22.25;12.30;;;4.90;87.20;;;;;;5017709;28;20105;-87
2022/03/10 08:33:57;;;;;;;21.00;12.23;;;5.00;86.60;;;;;;5013573;28;20053;-88
2022/03/10 08:36:22;;;;;;;21.02;13.27;;;5.10;86.30;;;;;;5011317;28;20041;-88
2022/03/10 08:38:48;;;;;;;19.52;13.13;;;5.20;86.00;;;;;;5031680;28;20048;-88
2022/03/10 08:41:14;;;;;;;20.38;14.20;;;5.30;84.90;;;;;;5025661;28;20033;-89
2022/03/10 08:43:39;;;;;;;20.05;13.18;;;5.40;84.30;;;;;;5012105;28;20041;-88
2022/03/10 08:46:06;;;;;;;19.95;13.35;;;5.60;83.60;;;;;;5005487;28;20506;-87
2022/03/10 08:48:32;;;;;;;20.13;13.50;;;5.60;82.60;;;;;;4983458;28;20037;-84
2022/03/10 08:51:02;;;;;;;20.58;14.05;;;5.80;82.20;;;;;;4989674;28;20049;-85
2022/03/10 08:53:29;;;;;;;20.23;14.10;;;5.90;81.70;;;;;;5024643;28;20068;-86
2022/03/10 08:55:54;;;;;;;19.75;12.90;;;5.90;80.70;;;;;;5005006;28;20824;-87
2022/03/10 08:58:20;;;;;;;19.17;12.45;;;6.00;80.40;;;;;;5027742;28;20084;-84
2022/03/10 09:00:46;;;;;;;19.08;12.75;;;6.20;79.60;;;;;;5005677;28;20057;-88
2022/03/10 09:03:11;;;;;;;19.05;13.20;;;6.30;79.00;;;;;;4996184;28;20391;-87
2022/03/10 09:05:37;;;;;;;19.27;12.50;;;6.40;78.20;;;;;;5004057;28;20069;-85
2022/03/10 09:08:04;;;;;;;19.48;12.27;;;6.60;76.20;;;;;;5022146;28;20029;-85
2022/03/10 09:10:30;;;;;;;18.77;13.05;;;6.70;76.50;;;;;;5016318;28;20082;-86
2022/03/10 09:12:56;;;;;;;20.15;13.43;;;6.80;76.40;;;;;;5009336;28;20112;-86
2022/03/10 09:15:22;;;;;;;20.42;12.48;;;6.90;76.10;;;;;;5040233;28;20060;-85
2022/03/10 09:17:48;;;;;;;20.60;13.88;;;7.00;75.00;;;;;;4997383;28;20054;-85
2022/03/10 09:20:14;;;;;;;17.58;12.82;;;7.10;74.40;;;;;;4994104;28;20037;-86
2022/03/10 09:22:41;;;;;;;18.35;12.88;;;7.30;73.70;;;;;;5026623;28;20073;-87
2022/03/10 09:25:08;;;;;;;20.75;14.00;;;7.30;72.60;;;;;;5026131;28;20110;-85
2022/03/10 09:27:36;;;;;;;17.95;12.60;;;7.50;71.80;;;;;;5020632;28;20050;-85
2022/03/10 09:30:03;;;;;;;17.80;13.05;;;7.60;70.70;;;;;;5000814;28;20394;-85
2022/03/10 09:32:40;;;;;;;18.60;13.75;;;7.70;70.00;;;;;;5001498;28;20413;-85
2022/03/10 09:35:07;;;;;;;20.77;14.32;;;7.80;69.90;;;;;;5007021;28;20059;-85
2022/03/10 09:37:33;;;;;;;19.38;13.52;;;7.90;69.50;;;;;;4977753;28;20056;-85
2022/03/10 09:39:59;;;;;;;22.20;13.65;;;8.10;68.20;;;;;;5017414;28;20116;-85
2022/03/10 09:42:28;;;;;;;18.55;13.75;;;8.20;68.00;;;;;;4989341;28;20463;-85
2022/03/10 09:44:59;;;;;;;17.88;13.75;;;8.30;67.40;;;;;;5020195;28;20073;-86
2022/03/10 09:47:25;;;;;;;18.73;14.43;;;8.30;67.10;;;;;;5028650;28;20037;-86
2022/03/10 09:49:52;;;;;;;18.15;14.18;;;8.50;66.80;;;;;;5026244;28;20394;-87
2022/03/10 09:52:18;;;;;;;18.10;13.85;;;8.60;66.20;;;;;;5011665;28;20042;-85
2022/03/10 09:54:44;;;;;;;20.38;14.45;;;8.60;66.20;;;;;;4989334;28;20052;-90
2022/03/10 09:57:12;;;;;;;18.90;14.40;;;8.70;65.80;;;;;;5032208;28;20049;-85
2022/03/10 09:59:49;;;;;;;17.45;13.27;;;8.90;65.50;;;;;;5030949;28;20360;-85
2022/03/10 10:02:15;;;;;;;18.67;14.27;;;9.00;64.20;;;;;;5032618;28;20125;-85
2022/03/10 10:04:41;;;;;;;19.80;14.50;;;9.20;63.00;;;;;;5030597;28;20120;-84
2022/03/10 10:07:08;;;;;;;18.23;14.57;;;9.30;62.50;;;;;;5013515;28;20052;-85
2022/03/10 10:09:52;;;;;;;17.05;14.32;;;9.40;61.50;;;;;;5028381;28;20049;-85
2022/03/10 10:12:20;;;;;;;18.40;14.88;;;9.50;60.40;;;;;;5020288;28;20079;-84
2022/03/10 10:14:46;;;;;;;20.00;14.32;;;9.50;60.90;;;;;;5008905;28;20384;-85
2022/03/10 10:17:12;;;;;;;17.23;14.50;;;9.60;60.30;;;;;;5019903;28;20041;-85
2022/03/10 10:19:40;;;;;;;18.67;14.80;;;9.60;60.60;;;;;;5028290;28;20049;-86
2022/03/10 10:22:16;;;;;;;19.38;14.98;;;9.70;60.50;;;;;;5012000;28;20415;-85
2022/03/10 10:24:57;;;;;;;20.25;15.10;;;9.80;60.20;;;;;;5014676;28;20096;-84
2022/03/10 10:27:33;;;;;;;18.95;14.82;;;9.80;59.30;;;;;;5015133;28;20077;-84
2022/03/10 10:30:03;;;;;;;18.80;14.70;;;9.90;59.60;;;;;;5003267;28;20076;-85
2022/03/10 10:32:33;;;;;;;20.30;15.90;;;9.90;59.50;;;;;;5006677;28;20085;-85
2022/03/10 10:35:04;;;;;;;20.03;16.23;;;10.00;58.70;;;;;;5031000;28;20038;-85
2022/03/10 10:37:30;;;;;;;;;;;10.10;58.10;;;;;;4999101;28;20045;-85
2022/03/10 10:39:56;;;;;;;19.48;15.32;;;10.20;58.80;;;;;;5013869;28;19925;-85
2022/03/10 10:42:27;;;;;;;20.23;15.68;;;10.20;58.80;;;;;;5032306;28;20095;-85
2022/03/10 10:44:54;;;;;;;19.52;15.70;;;10.30;57.80;;;;;;5031724;28;20050;-84
2022/03/10 10:47:19;;;;;;;19.73;15.48;;;10.40;57.60;;;;;;5013601;28;20061;-84
2022/03/10 10:49:59;;;;;;;19.85;15.73;;;10.50;57.70;;;;;;5013341;28;20048;-84
2022/03/10 10:52:25;;;;;;;20.48;15.35;;;10.60;57.40;;;;;;5014728;28;20395;-85
2022/03/10 10:55:12;;;;;;;19.83;15.27;;;10.60;57.30;;;;;;5031225;28;20041;-84
2022/03/10 10:57:39;;;;;;;19.80;15.48;;;10.70;57.50;;;;;;5013738;28;20052;-85
2022/03/10 11:00:11;;;;;;;19.55;15.70;;;10.70;57.20;;;;;;5012873;28;20053;-85
2022/03/10 11:02:42;;;;;;;20.52;15.88;;;10.80;57.50;;;;;;5013049;28;20057;-85
2022/03/10 11:05:11;;;;;;;19.42;15.55;;;10.90;57.30;;;;;;5032154;28;20050;-85
2022/03/10 11:07:39;;;;;;;20.05;15.80;;;11.00;57.10;;;;;;5030904;28;20132;-86
2022/03/10 11:10:07;;;;;;;21.17;16.83;;;11.10;57.20;;;;;;5031422;28;20046;-85
2022/03/10 11:12:34;;;;;;;19.02;15.38;;;11.10;57.10;;;;;;5013898;28;20045;-85
2022/03/10 11:15:00;;;;;;;20.52;16.40;;;11.20;56.80;;;;;;5031764;28;20052;-85
2022/03/10 11:17:27;;;;;;;19.67;15.48;;;11.30;56.70;;;;;;4994309;28;20041;-84
2022/03/10 11:19:57;;;;;;;20.27;15.88;;;11.30;56.40;;;;;;5030947;28;20414;-84
2022/03/10 11:22:34;;;;;;;21.45;15.57;;;11.40;56.40;;;;;;5024978;28;20045;-84
2022/03/10 11:25:45;;;;;;;21.13;16.25;;;11.40;55.90;;;;;;5031025;28;20111;-85
2022/03/10 11:28:31;;;;;;;19.67;16.05;;;11.60;55.50;;;;;;5011422;28;20052;-85
2022/03/10 11:31:00;;;;;;;20.50;16.48;;;11.70;55.50;;;;;;4980847;28;20520;-85
2022/03/10 11:33:33;;;;;;;20.70;16.92;;;11.70;54.90;;;;;;5012335;28;20060;-85
2022/03/10 11:36:00;;;;;;;19.33;15.95;;;11.80;54.70;;;;;;5030649;28;20390;-84
2022/03/10 11:38:55;;;;;;;21.33;16.50;;;11.90;54.70;;;;;;5031815;28;20037;-85
2022/03/10 11:41:27;;;;;;;22.15;16.27;;;12.00;54.40;;;;;;5032609;28;20097;-85
2022/03/10 11:44:01;;;;;;;20.50;15.73;;;12.10;53.70;;;;;;5013437;28;20041;-85
2022/03/10 11:46:28;;;;;;;21.90;15.93;;;12.20;53.20;;;;;;4996391;28;20087;-85
2022/03/10 11:49:07;;;;;;;21.55;16.20;;;12.20;52.90;;;;;;5012160;28;20045;-85
2022/03/10 11:51:48;;;;;;;20.13;15.40;;;12.30;52.10;;;;;;5030459;28;20049;-86
2022/03/10 11:54:26;;;;;;;20.60;15.93;;;12.40;52.20;;;;;;4996465;28;20054;-85
2022/03/10 11:56:52;;;;;;;20.88;16.67;;;12.40;51.40;;;;;;5030301;28;20056;-85
2022/03/10 11:59:37;;;;;;;22.60;17.27;;;12.50;51.30;;;;;;5013346;28;20092;-86
2022/03/10 12:02:04;;;;;;;23.05;16.00;;;12.50;51.10;;;;;;5012538;28;20045;-86
2022/03/10 12:04:40;;;;;;;22.13;16.77;;;12.60;51.30;;;;;;5013113;28;20399;-85
2022/03/10 12:07:09;;;;;;;22.33;16.90;;;12.70;50.80;;;;;;4995637;28;20076;-85
2022/03/10 12:09:38;;;;;;;20.70;16.27;;;12.70;50.70;;;;;;5012288;28;20120;-85
2022/03/10 12:12:18;;;;;;;21.10;16.42;;;12.90;50.90;;;;;;5002584;28;20049;-86
2022/03/10 12:14:44;;;;;;;20.60;16.15;;;13.00;49.70;;;;;;5033353;28;20410;-85
2022/03/10 12:17:49;;;;;;;21.35;16.55;;;13.10;50.00;;;;;;5029419;28;20073;-86
2022/03/10 12:20:23;;;;;;;23.30;17.73;;;13.20;49.20;;;;;;5010344;28;20381;-84
2022/03/10 12:23:04;;;;;;;20.98;16.45;;;13.30;49.60;;;;;;5012428;28;20046;-86
2022/03/10 12:25:35;;;;;;;20.20;16.40;;;13.30;47.00;;;;;;5018263;28;20084;-86
2022/03/10 12:28:01;;;;;;;21.20;15.95;;;13.40;48.60;;;;;;5012070;28;20053;-84
2022/03/10 12:30:28;;;;;;;22.58;17.05;;;13.40;48.10;;;;;;5024719;28;20679;-85
2022/03/10 12:32:56;;;;;;;19.48;15.52;;;13.50;49.20;;;;;;5029542;28;20053;-85
2022/03/10 12:35:27;;;;;;;21.15;15.48;;;13.60;48.50;;;;;;4999824;28;20392;-85
2022/03/10 12:37:53;;;;;;;21.08;16.15;;;13.60;49.00;;;;;;5003171;28;20041;-85
2022/03/10 12:40:25;;;;;;;22.80;17.13;;;13.70;48.60;;;;;;4999115;28;20391;-85
2022/03/10 12:42:51;;;;;;;21.00;16.70;;;13.70;48.60;;;;;;4992778;28;20041;-85